CheckWX is a tool to help pilots better visualize weather data.  It is not intended as a substitute for an official pre-flight weather briefing.

20:32:21 UTC

SPTU TAF
Padre Aldamiz International Airport
Puerto Maldonado, Peru
SPTU 221700Z 2218/2318 30003KT 9999 FEW020 OVC100 TX29/2219Z TN22/2311Z TEMPO 2218/2221 BKN015 FEW020TCU

Mar-22@
18:00 UTC

Mar-22 @ 18:00 UTC

Mar-23@
18:00 UTC

Mar-23 @ 18:00 UTC

SPTU 221700Z 2218/2318 30003KT 9999 FEW020 OVC100 TX29/2219Z TN22/2311Z
Wind
  • 300° at 3 KTS
Cloud Levels
  • Few at 2,000' AGL
  • Overcast at 10,000' AGL

Mar-22@
18:00 UTC

Mar-22 @ 18:00 UTC

Mar-22@
21:00 UTC

Mar-22 @ 21:00 UTC

TEMPO 2218/2221 BKN015 FEW020TCU

Temporary

Temporary Changes expected for less than half the time period

Cloud Levels
  • Broken at 1,500' AGL
  • Few at 2,000' AGL